sensor_id;sensor_type;location;lat;lon;timestamp;noise_LAeq;noise_LA_min;noise_LA_max;noise_LA01;noise_LA95
45651;Laerm;31365;48.858;8.530;2023-07-29T00:00:34;55.66;35.94;72.96;;
45651;Laerm;31365;48.858;8.530;2023-07-29T00:03:02;54.22;32.93;74.27;;
45651;Laerm;31365;48.858;8.530;2023-07-29T00:05:31;39.39;32.93;42.59;;
45651;Laerm;31365;48.858;8.530;2023-07-29T00:08:00;52.49;32.35;80.66;;
45651;Laerm;31365;48.858;8.530;2023-07-29T00:10:31;59.84;35.94;78.27;;
45651;Laerm;31365;48.858;8.530;2023-07-29T00:13:00;51.42;33.90;70.04;;
45651;Laerm;31365;48.858;8.530;2023-07-29T00:15:28;40.36;35.66;52.22;;
45651;Laerm;31365;48.858;8.530;2023-07-29T00:18:01;57.98;37.70;77.97;;
45651;Laerm;31365;48.858;8.530;2023-07-29T00:20:31;52.44;37.88;76.10;;
45651;Laerm;31365;48.858;8.530;2023-07-29T00:22:59;55.91;35.36;71.40;;
45651;Laerm;31365;48.858;8.530;2023-07-29T00:25:28;54.94;34.69;74.95;;
45651;Laerm;31365;48.858;8.530;2023-07-29T00:27:59;54.52;35.66;72.97;;
45651;Laerm;31365;48.858;8.530;2023-07-29T00:30:27;47.75;34.69;63.84;;
45651;Laerm;31365;48.858;8.530;2023-07-29T00:32:55;52.47;33.44;73.00;;
45651;Laerm;31365;48.858;8.530;2023-07-29T00:35:24;43.09;33.90;64.73;;
45651;Laerm;31365;48.858;8.530;2023-07-29T00:37:53;49.79;33.90;68.41;;
45651;Laerm;31365;48.858;8.530;2023-07-29T00:40:22;39.54;33.90;42.93;;
45651;Laerm;31365;48.858;8.530;2023-07-29T00:42:52;56.20;35.04;76.65;;
45651;Laerm;31365;48.858;8.530;2023-07-29T00:45:20;39.98;35.04;45.04;;
45651;Laerm;31365;48.858;8.530;2023-07-29T00:47:49;41.11;34.31;56.12;;
45651;Laerm;31365;48.858;8.530;2023-07-29T00:50:18;54.89;36.69;77.28;;
45651;Laerm;31365;48.858;8.530;2023-07-29T00:52:48;54.89;36.69;77.28;;
45651;Laerm;31365;48.858;8.530;2023-07-29T00:55:18;53.78;34.69;74.19;;
45651;Laerm;31365;48.858;8.530;2023-07-29T00:57:48;40.24;32.35;44.51;;
45651;Laerm;31365;48.858;8.530;2023-07-29T01:00:18;54.38;33.44;77.61;;
45651;Laerm;31365;48.858;8.530;2023-07-29T01:02:47;39.06;32.93;42.82;;
45651;Laerm;31365;48.858;8.530;2023-07-29T01:05:17;56.47;30.89;71.86;;
45651;Laerm;31365;48.858;8.530;2023-07-29T01:10:34;39.30;33.44;43.14;;
45651;Laerm;31365;48.858;8.530;2023-07-29T01:13:19;39.42;32.93;42.71;;
45651;Laerm;31365;48.858;8.530;2023-07-29T01:15:56;39.26;34.31;42.41;;
45651;Laerm;31365;48.858;8.530;2023-07-29T01:18:32;39.30;33.90;42.76;;
45651;Laerm;31365;48.858;8.530;2023-07-29T01:21:04;38.75;32.93;42.71;;
45651;Laerm;31365;48.858;8.530;2023-07-29T01:23:38;53.77;32.35;74.06;;
45651;Laerm;31365;48.858;8.530;2023-07-29T01:26:06;39.67;33.44;43.39;;
45651;Laerm;31365;48.858;8.530;2023-07-29T01:28:35;53.96;31.68;76.98;;
45651;Laerm;31365;48.858;8.530;2023-07-29T01:31:13;57.22;34.31;76.74;;
45651;Laerm;31365;48.858;8.530;2023-07-29T01:33:53;39.70;32.93;42.53;;
45651;Laerm;31365;48.858;8.530;2023-07-29T01:36:29;63.41;34.31;83.76;;
45651;Laerm;31365;48.858;8.530;2023-07-29T01:39:04;39.20;32.93;42.35;;
45651;Laerm;31365;48.858;8.530;2023-07-29T01:41:33;38.72;32.93;42.29;;
45651;Laerm;31365;48.858;8.530;2023-07-29T01:44:03;55.78;33.44;74.99;;
45651;Laerm;31365;48.858;8.530;2023-07-29T01:49:01;39.19;32.35;42.47;;
45651;Laerm;31365;48.858;8.530;2023-07-29T01:51:31;39.02;32.35;42.29;;
45651;Laerm;31365;48.858;8.530;2023-07-29T01:53:59;39.55;35.04;42.65;;
45651;Laerm;31365;48.858;8.530;2023-07-29T01:56:29;39.44;33.90;43.86;;
45651;Laerm;31365;48.858;8.530;2023-07-29T01:58:57;40.02;34.31;43.24;;
45651;Laerm;31365;48.858;8.530;2023-07-29T02:01:27;54.10;34.69;75.84;;
45651;Laerm;31365;48.858;8.530;2023-07-29T02:03:56;57.38;35.66;76.02;;
45651;Laerm;31365;48.858;8.530;2023-07-29T02:06:25;39.43;30.89;42.41;;
45651;Laerm;31365;48.858;8.530;2023-07-29T02:08:55;39.46;33.90;42.53;;
45651;Laerm;31365;48.858;8.530;2023-07-29T02:11:23;39.31;32.35;42.76;;
45651;Laerm;31365;48.858;8.530;2023-07-29T02:13:57;39.13;32.35;42.65;;
45651;Laerm;31365;48.858;8.530;2023-07-29T02:16:26;40.68;33.90;44.76;;
45651;Laerm;31365;48.858;8.530;2023-07-29T02:18:54;68.33;35.04;85.63;;
45651;Laerm;31365;48.858;8.530;2023-07-29T02:21:23;52.87;33.55;74.56;;
45651;Laerm;31365;48.858;8.530;2023-07-29T02:23:51;50.62;32.93;69.69;;
45651;Laerm;31365;48.858;8.530;2023-07-29T02:26:19;50.87;33.90;69.34;;
45651;Laerm;31365;48.858;8.530;2023-07-29T02:28:48;38.54;31.68;42.88;;
45651;Laerm;31365;48.858;8.530;2023-07-29T02:31:21;53.15;32.35;73.23;;
45651;Laerm;31365;48.858;8.530;2023-07-29T02:33:50;53.17;32.93;75.85;;
45651;Laerm;31365;48.858;8.530;2023-07-29T02:36:19;57.56;35.66;79.95;;
45651;Laerm;31365;48.858;8.530;2023-07-29T02:38:47;52.95;33.44;71.44;;
45651;Laerm;31365;48.858;8.530;2023-07-29T02:41:15;54.70;33.09;74.90;;
45651;Laerm;31365;48.858;8.530;2023-07-29T02:43:48;38.65;31.68;42.98;;
45651;Laerm;31365;48.858;8.530;2023-07-29T02:46:18;38.79;30.89;43.90;;
45651;Laerm;31365;48.858;8.530;2023-07-29T02:48:47;57.80;32.93;76.78;;
45651;Laerm;31365;48.858;8.530;2023-07-29T02:51:16;58.93;33.90;79.86;;
45651;Laerm;31365;48.858;8.530;2023-07-29T02:53:44;44.93;28.67;68.05;;
45651;Laerm;31365;48.858;8.530;2023-07-29T02:56:13;54.57;28.67;74.21;;
45651;Laerm;31365;48.858;8.530;2023-07-29T02:58:41;39.54;33.44;48.66;;
45651;Laerm;31365;48.858;8.530;2023-07-29T03:01:09;54.88;34.69;74.12;;
45651;Laerm;31365;48.858;8.530;2023-07-29T03:03:40;58.98;35.94;75.86;;
45651;Laerm;31365;48.858;8.530;2023-07-29T03:06:12;52.19;34.31;69.95;;
45651;Laerm;31365;48.858;8.530;2023-07-29T03:08:41;57.70;34.69;79.90;;
45651;Laerm;31365;48.858;8.530;2023-07-29T03:11:11;39.88;32.93;43.19;;
45651;Laerm;31365;48.858;8.530;2023-07-29T03:13:40;55.53;31.68;77.10;;
45651;Laerm;31365;48.858;8.530;2023-07-29T03:16:11;52.40;35.86;72.94;;
45651;Laerm;31365;48.858;8.530;2023-07-29T03:18:48;53.99;34.69;73.09;;
45651;Laerm;31365;48.858;8.530;2023-07-29T03:21:16;54.63;34.69;71.62;;
45651;Laerm;31365;48.858;8.530;2023-07-29T03:23:44;52.63;34.69;72.40;;
45651;Laerm;31365;48.858;8.530;2023-07-29T03:26:13;54.13;34.69;73.37;;
45651;Laerm;31365;48.858;8.530;2023-07-29T03:28:43;54.53;37.12;73.68;;
45651;Laerm;31365;48.858;8.530;2023-07-29T03:31:11;61.71;42.22;70.33;;
45651;Laerm;31365;48.858;8.530;2023-07-29T03:33:40;57.85;42.93;77.10;;
45651;Laerm;31365;48.858;8.530;2023-07-29T03:36:10;57.62;41.89;78.00;;
45651;Laerm;31365;48.858;8.530;2023-07-29T03:38:39;42.89;40.13;53.74;;
45651;Laerm;31365;48.858;8.530;2023-07-29T03:41:08;58.21;38.95;74.94;;
45651;Laerm;31365;48.858;8.530;2023-07-29T03:43:37;41.89;38.37;50.71;;
45651;Laerm;31365;48.858;8.530;2023-07-29T03:46:06;53.90;38.81;72.52;;
45651;Laerm;31365;48.858;8.530;2023-07-29T03:48:39;48.78;37.12;71.77;;
45651;Laerm;31365;48.858;8.530;2023-07-29T03:51:08;57.98;37.70;74.85;;
45651;Laerm;31365;48.858;8.530;2023-07-29T03:53:38;43.15;36.20;64.12;;
45651;Laerm;31365;48.858;8.530;2023-07-29T03:56:06;53.15;36.20;71.01;;
45651;Laerm;31365;48.858;8.530;2023-07-29T03:58:35;56.31;36.20;75.61;;
45651;Laerm;31365;48.858;8.530;2023-07-29T04:01:03;54.30;36.91;73.83;;
45651;Laerm;31365;48.858;8.530;2023-07-29T04:03:33;49.85;38.67;68.09;;
45651;Laerm;31365;48.858;8.530;2023-07-29T04:06:02;61.61;42.88;77.99;;
45651;Laerm;31365;48.858;8.530;2023-07-29T04:08:31;64.37;45.98;79.93;;
45651;Laerm;31365;48.858;8.530;2023-07-29T04:11:01;60.96;42.93;79.77;;
45651;Laerm;31365;48.858;8.530;2023-07-29T04:13:29;44.06;41.96;48.00;;
45651;Laerm;31365;48.858;8.530;2023-07-29T04:15:58;59.96;40.80;77.15;;
45651;Laerm;31365;48.858;8.530;2023-07-29T04:18:27;61.05;40.98;79.07;;
45651;Laerm;31365;48.858;8.530;2023-07-29T04:20:56;54.94;39.92;73.26;;
45651;Laerm;31365;48.858;8.530;2023-07-29T04:23:24;59.86;40.13;77.62;;
45651;Laerm;31365;48.858;8.530;2023-07-29T04:25:53;60.73;38.81;84.67;;
45651;Laerm;31365;48.858;8.530;2023-07-29T04:28:22;52.50;38.05;69.80;;
45651;Laerm;31365;48.858;8.530;2023-07-29T04:30:50;58.47;38.81;77.76;;
45651;Laerm;31365;48.858;8.530;2023-07-29T04:33:19;57.85;39.46;74.11;;
45651;Laerm;31365;48.858;8.530;2023-07-29T04:35:47;56.06;37.52;78.28;;
45651;Laerm;31365;48.858;8.530;2023-07-29T04:38:15;58.34;38.67;76.11;;
45651;Laerm;31365;48.858;8.530;2023-07-29T04:40:44;59.51;38.21;77.41;;
45651;Laerm;31365;48.858;8.530;2023-07-29T04:43:14;59.49;38.05;75.16;;
45651;Laerm;31365;48.858;8.530;2023-07-29T04:45:44;57.21;40.13;73.90;;
45651;Laerm;31365;48.858;8.530;2023-07-29T04:48:13;60.47;37.88;76.08;;
45651;Laerm;31365;48.858;8.530;2023-07-29T04:50:41;41.89;36.69;51.71;;
45651;Laerm;31365;48.858;8.530;2023-07-29T04:53:09;59.46;38.67;77.53;;
45651;Laerm;31365;48.858;8.530;2023-07-29T04:55:37;61.65;40.27;79.33;;
45651;Laerm;31365;48.858;8.530;2023-07-29T04:58:06;56.31;37.70;76.11;;
45651;Laerm;31365;48.858;8.530;2023-07-29T05:00:36;59.93;37.52;78.46;;
45651;Laerm;31365;48.858;8.530;2023-07-29T05:03:05;43.14;37.12;51.17;;
45651;Laerm;31365;48.858;8.530;2023-07-29T05:05:34;51.39;37.88;70.73;;
45651;Laerm;31365;48.858;8.530;2023-07-29T05:08:03;60.22;38.05;77.73;;
45651;Laerm;31365;48.858;8.530;2023-07-29T05:10:31;55.61;37.12;77.02;;
45651;Laerm;31365;48.858;8.530;2023-07-29T05:13:00;56.12;38.21;75.10;;
45651;Laerm;31365;48.858;8.530;2023-07-29T05:15:28;56.64;38.81;75.86;;
45651;Laerm;31365;48.858;8.530;2023-07-29T05:17:56;58.03;38.95;75.10;;
45651;Laerm;31365;48.858;8.530;2023-07-29T05:20:26;49.89;36.91;66.30;;
45651;Laerm;31365;48.858;8.530;2023-07-29T05:22:55;58.22;37.32;79.11;;
45651;Laerm;31365;48.858;8.530;2023-07-29T05:25:24;59.32;37.52;78.44;;
45651;Laerm;31365;48.858;8.530;2023-07-29T05:27:52;56.77;37.88;70.77;;
45651;Laerm;31365;48.858;8.530;2023-07-29T05:30:21;58.06;39.81;72.24;;
45651;Laerm;31365;48.858;8.530;2023-07-29T05:32:49;58.80;38.95;75.26;;
45651;Laerm;31365;48.858;8.530;2023-07-29T05:35:18;60.19;38.95;76.49;;
45651;Laerm;31365;48.858;8.530;2023-07-29T05:37:48;59.84;40.23;76.99;;
45651;Laerm;31365;48.858;8.530;2023-07-29T05:40:17;63.38;38.67;79.42;;
45651;Laerm;31365;48.858;8.530;2023-07-29T05:42:45;61.37;39.21;78.74;;
45651;Laerm;31365;48.858;8.530;2023-07-29T05:45:15;57.66;38.37;74.87;;
45651;Laerm;31365;48.858;8.530;2023-07-29T05:47:43;61.64;39.70;75.30;;
45651;Laerm;31365;48.858;8.530;2023-07-29T05:50:11;54.77;37.70;73.36;;
45651;Laerm;31365;48.858;8.530;2023-07-29T05:52:40;62.11;41.14;76.26;;
45651;Laerm;31365;48.858;8.530;2023-07-29T05:55:09;61.28;38.21;79.95;;
45651;Laerm;31365;48.858;8.530;2023-07-29T05:57:38;60.31;38.81;78.17;;
45651;Laerm;31365;48.858;8.530;2023-07-29T06:00:11;60.57;39.21;77.73;;
45651;Laerm;31365;48.858;8.530;2023-07-29T06:02:40;60.62;40.71;76.62;;
45651;Laerm;31365;48.858;8.530;2023-07-29T06:05:13;64.80;39.08;86.26;;
45651;Laerm;31365;48.858;8.530;2023-07-29T06:07:42;61.64;40.33;77.13;;
45651;Laerm;31365;48.858;8.530;2023-07-29T06:10:15;63.69;43.81;78.25;;
45651;Laerm;31365;48.858;8.530;2023-07-29T06:12:46;59.40;38.95;76.80;;
45651;Laerm;31365;48.858;8.530;2023-07-29T06:15:15;64.15;41.68;80.19;;
45651;Laerm;31365;48.858;8.530;2023-07-29T06:17:43;62.89;40.89;77.79;;
45651;Laerm;31365;48.858;8.530;2023-07-29T06:20:11;62.25;41.82;76.45;;
45651;Laerm;31365;48.858;8.530;2023-07-29T06:22:41;60.11;39.23;77.83;;
45651;Laerm;31365;48.858;8.530;2023-07-29T06:25:09;63.13;40.98;79.32;;
45651;Laerm;31365;48.858;8.530;2023-07-29T06:27:39;60.91;39.70;79.01;;
45651;Laerm;31365;48.858;8.530;2023-07-29T06:30:08;65.24;40.33;82.27;;
45651;Laerm;31365;48.858;8.530;2023-07-29T06:32:37;61.24;40.23;77.51;;
45651;Laerm;31365;48.858;8.530;2023-07-29T06:37:34;61.29;41.14;76.25;;
45651;Laerm;31365;48.858;8.530;2023-07-29T06:40:04;64.32;42.03;81.49;;
45651;Laerm;31365;48.858;8.530;2023-07-29T06:42:33;54.85;38.05;71.01;;
45651;Laerm;31365;48.858;8.530;2023-07-29T06:45:04;60.33;40.23;75.76;;
45651;Laerm;31365;48.858;8.530;2023-07-29T06:47:32;61.29;40.23;77.44;;
45651;Laerm;31365;48.858;8.530;2023-07-29T06:50:00;59.79;40.80;78.87;;
45651;Laerm;31365;48.858;8.530;2023-07-29T06:52:29;58.72;38.95;77.34;;
45651;Laerm;31365;48.858;8.530;2023-07-29T06:54:58;57.13;39.92;74.78;;
45651;Laerm;31365;48.858;8.530;2023-07-29T06:57:26;60.48;39.68;76.91;;
45651;Laerm;31365;48.858;8.530;2023-07-29T06:59:55;68.11;39.08;87.22;;
45651;Laerm;31365;48.858;8.530;2023-07-29T07:02:25;62.20;41.30;81.92;;
45651;Laerm;31365;48.858;8.530;2023-07-29T07:04:53;60.86;39.81;81.10;;
45651;Laerm;31365;48.858;8.530;2023-07-29T07:07:22;64.79;41.14;80.59;;
45651;Laerm;31365;48.858;8.530;2023-07-29T07:09:50;60.92;38.21;78.73;;
45651;Laerm;31365;48.858;8.530;2023-07-29T07:12:19;61.97;37.88;80.10;;
45651;Laerm;31365;48.858;8.530;2023-07-29T07:15:09;60.18;40.23;75.00;;
45651;Laerm;31365;48.858;8.530;2023-07-29T07:17:39;65.18;42.47;79.91;;
45651;Laerm;31365;48.858;8.530;2023-07-29T07:20:08;58.63;41.46;71.30;;
45651;Laerm;31365;48.858;8.530;2023-07-29T07:22:37;63.29;42.16;79.20;;
45651;Laerm;31365;48.858;8.530;2023-07-29T07:25:07;62.87;41.96;78.37;;
45651;Laerm;31365;48.858;8.530;2023-07-29T07:27:36;58.58;39.23;73.80;;
45651;Laerm;31365;48.858;8.530;2023-07-29T07:30:06;62.43;41.75;78.65;;
45651;Laerm;31365;48.858;8.530;2023-07-29T07:32:35;60.37;41.53;75.40;;
45651;Laerm;31365;48.858;8.530;2023-07-29T07:35:06;66.28;42.76;81.94;;
45651;Laerm;31365;48.858;8.530;2023-07-29T07:37:38;64.57;40.89;78.31;;
45651;Laerm;31365;48.858;8.530;2023-07-29T07:40:07;61.64;41.75;75.42;;
45651;Laerm;31365;48.858;8.530;2023-07-29T07:42:36;63.98;40.33;79.42;;
45651;Laerm;31365;48.858;8.530;2023-07-29T07:45:05;64.24;41.96;78.67;;
45651;Laerm;31365;48.858;8.530;2023-07-29T07:47:34;61.54;41.53;78.01;;
45651;Laerm;31365;48.858;8.530;2023-07-29T07:50:03;61.92;40.43;76.81;;
45651;Laerm;31365;48.858;8.530;2023-07-29T07:52:33;63.00;43.09;79.44;;
45651;Laerm;31365;48.858;8.530;2023-07-29T07:55:01;60.95;41.53;79.52;;
45651;Laerm;31365;48.858;8.530;2023-07-29T07:57:29;62.94;43.14;79.44;;
45651;Laerm;31365;48.858;8.530;2023-07-29T07:59:57;63.76;40.80;78.25;;
45651;Laerm;31365;48.858;8.530;2023-07-29T08:02:26;63.96;40.43;79.91;;
45651;Laerm;31365;48.858;8.530;2023-07-29T08:04:54;62.32;39.34;76.83;;
45651;Laerm;31365;48.858;8.530;2023-07-29T08:07:22;68.70;41.61;88.26;;
45651;Laerm;31365;48.858;8.530;2023-07-29T08:09:52;65.38;42.35;82.19;;
45651;Laerm;31365;48.858;8.530;2023-07-29T08:14:48;63.06;40.13;77.10;;
45651;Laerm;31365;48.858;8.530;2023-07-29T08:17:16;62.60;40.71;77.89;;
45651;Laerm;31365;48.858;8.530;2023-07-29T08:19:44;63.47;40.62;75.83;;
45651;Laerm;31365;48.858;8.530;2023-07-29T08:22:31;63.59;39.58;77.91;;
45651;Laerm;31365;48.858;8.530;2023-07-29T08:25:01;61.50;41.68;78.57;;
45651;Laerm;31365;48.858;8.530;2023-07-29T08:27:29;63.81;42.98;85.21;;
45651;Laerm;31365;48.858;8.530;2023-07-29T08:29:58;63.09;38.95;78.67;;
45651;Laerm;31365;48.858;8.530;2023-07-29T08:32:26;61.88;43.04;74.27;;
45651;Laerm;31365;48.858;8.530;2023-07-29T08:34:54;61.89;41.96;74.65;;
45651;Laerm;31365;48.858;8.530;2023-07-29T08:37:22;61.06;37.88;75.49;;
45651;Laerm;31365;48.858;8.530;2023-07-29T08:39:51;64.15;43.04;75.39;;
45651;Laerm;31365;48.858;8.530;2023-07-29T08:42:26;62.95;39.81;79.03;;
45651;Laerm;31365;48.858;8.530;2023-07-29T08:45:01;59.84;41.22;74.24;;
45651;Laerm;31365;48.858;8.530;2023-07-29T08:47:34;63.84;41.22;78.59;;
45651;Laerm;31365;48.858;8.530;2023-07-29T08:50:04;61.94;40.23;78.36;;
45651;Laerm;31365;48.858;8.530;2023-07-29T08:52:33;60.53;39.70;75.99;;
45651;Laerm;31365;48.858;8.530;2023-07-29T08:55:03;63.92;42.93;81.38;;
45651;Laerm;31365;48.858;8.530;2023-07-29T08:57:35;61.63;42.59;77.26;;
45651;Laerm;31365;48.858;8.530;2023-07-29T09:00:06;58.21;39.21;71.98;;
45651;Laerm;31365;48.858;8.530;2023-07-29T09:02:35;63.96;43.19;75.92;;
45651;Laerm;31365;48.858;8.530;2023-07-29T09:05:04;62.06;42.53;77.71;;
45651;Laerm;31365;48.858;8.530;2023-07-29T09:07:36;64.38;40.89;77.12;;
45651;Laerm;31365;48.858;8.530;2023-07-29T09:10:09;64.16;45.23;77.48;;
45651;Laerm;31365;48.858;8.530;2023-07-29T09:12:39;65.70;43.58;79.36;;
45651;Laerm;31365;48.858;8.530;2023-07-29T09:15:09;65.14;41.89;78.16;;
45651;Laerm;31365;48.858;8.530;2023-07-29T09:17:40;63.97;42.82;79.65;;
45651;Laerm;31365;48.858;8.530;2023-07-29T09:20:10;60.66;43.14;76.25;;
45651;Laerm;31365;48.858;8.530;2023-07-29T09:22:39;65.74;44.69;77.16;;
45651;Laerm;31365;48.858;8.530;2023-07-29T09:27:36;67.40;47.52;79.03;;
45651;Laerm;31365;48.858;8.530;2023-07-29T09:30:15;67.48;47.26;81.38;;
45651;Laerm;31365;48.858;8.530;2023-07-29T09:32:44;67.74;44.15;82.31;;
45651;Laerm;31365;48.858;8.530;2023-07-29T09:35:13;65.86;43.44;77.70;;
45651;Laerm;31365;48.858;8.530;2023-07-29T09:37:43;65.14;45.54;78.40;;
45651;Laerm;31365;48.858;8.530;2023-07-29T09:40:14;67.18;50.69;79.35;;
45651;Laerm;31365;48.858;8.530;2023-07-29T09:42:48;67.13;45.86;80.54;;
45651;Laerm;31365;48.858;8.530;2023-07-29T09:45:23;64.35;44.90;79.58;;
45651;Laerm;31365;48.858;8.530;2023-07-29T09:47:54;65.87;44.94;78.85;;
45651;Laerm;31365;48.858;8.530;2023-07-29T09:50:23;66.57;43.72;76.98;;
45651;Laerm;31365;48.858;8.530;2023-07-29T09:52:54;65.59;43.90;80.06;;
45651;Laerm;31365;48.858;8.530;2023-07-29T09:55:23;60.86;42.03;79.53;;
45651;Laerm;31365;48.858;8.530;2023-07-29T09:57:54;63.20;41.30;77.85;;
45651;Laerm;31365;48.858;8.530;2023-07-29T10:00:25;65.06;42.06;77.75;;
45651;Laerm;31365;48.858;8.530;2023-07-29T10:02:53;63.91;41.38;79.29;;
45651;Laerm;31365;48.858;8.530;2023-07-29T10:05:25;64.67;40.89;78.96;;
45651;Laerm;31365;48.858;8.530;2023-07-29T10:07:54;63.16;40.53;74.73;;
45651;Laerm;31365;48.858;8.530;2023-07-29T10:10:23;64.91;42.93;79.32;;
45651;Laerm;31365;48.858;8.530;2023-07-29T10:12:53;63.40;42.53;77.41;;
45651;Laerm;31365;48.858;8.530;2023-07-29T10:15:22;66.03;47.10;79.00;;
45651;Laerm;31365;48.858;8.530;2023-07-29T10:17:52;64.33;41.22;77.55;;
45651;Laerm;31365;48.858;8.530;2023-07-29T10:20:21;61.82;39.21;78.38;;
45651;Laerm;31365;48.858;8.530;2023-07-29T10:22:51;63.52;42.42;76.40;;
45651;Laerm;31365;48.858;8.530;2023-07-29T10:25:25;62.94;41.30;79.23;;
45651;Laerm;31365;48.858;8.530;2023-07-29T10:28:07;64.13;42.71;78.28;;
45651;Laerm;31365;48.858;8.530;2023-07-29T10:30:36;61.10;42.22;83.85;;
45651;Laerm;31365;48.858;8.530;2023-07-29T10:33:07;63.51;44.62;74.92;;
45651;Laerm;31365;48.858;8.530;2023-07-29T10:35:37;62.76;42.22;76.79;;
45651;Laerm;31365;48.858;8.530;2023-07-29T10:38:06;64.22;41.89;79.87;;
45651;Laerm;31365;48.858;8.530;2023-07-29T10:40:46;62.66;40.03;75.58;;
45651;Laerm;31365;48.858;8.530;2023-07-29T10:43:25;60.68;38.52;76.78;;
45651;Laerm;31365;48.858;8.530;2023-07-29T10:45:57;62.88;39.34;78.26;;
45651;Laerm;31365;48.858;8.530;2023-07-29T10:48:44;62.64;42.16;77.28;;
45651;Laerm;31365;48.858;8.530;2023-07-29T10:51:27;62.34;39.81;77.98;;
45651;Laerm;31365;48.858;8.530;2023-07-29T10:53:59;64.55;41.89;81.37;;
45651;Laerm;31365;48.858;8.530;2023-07-29T10:56:30;62.42;42.41;77.25;;
45651;Laerm;31365;48.858;8.530;2023-07-29T10:59:23;63.73;42.59;79.09;;
45651;Laerm;31365;48.858;8.530;2023-07-29T11:02:00;61.35;40.23;78.89;;
45651;Laerm;31365;48.858;8.530;2023-07-29T11:04:30;61.61;41.68;76.94;;
45651;Laerm;31365;48.858;8.530;2023-07-29T11:07:20;60.26;41.14;77.03;;
45651;Laerm;31365;48.858;8.530;2023-07-29T11:09:59;64.45;42.82;77.41;;
45651;Laerm;31365;48.858;8.530;2023-07-29T11:12:39;59.83;40.03;74.16;;
45651;Laerm;31365;48.858;8.530;2023-07-29T11:15:19;60.74;39.21;76.11;;
45651;Laerm;31365;48.858;8.530;2023-07-29T11:17:51;63.66;41.82;81.13;;
45651;Laerm;31365;48.858;8.530;2023-07-29T11:20:24;63.09;39.70;81.69;;
45651;Laerm;31365;48.858;8.530;2023-07-29T11:22:55;62.66;42.41;72.90;;
45651;Laerm;31365;48.858;8.530;2023-07-29T11:25:26;57.25;39.81;72.18;;
45651;Laerm;31365;48.858;8.530;2023-07-29T11:27:59;61.58;41.06;74.80;;
45651;Laerm;31365;48.858;8.530;2023-07-29T11:30:33;60.04;39.92;75.49;;
45651;Laerm;31365;48.858;8.530;2023-07-29T11:33:02;61.47;39.70;78.43;;
45651;Laerm;31365;48.858;8.530;2023-07-29T11:35:32;62.49;41.82;76.91;;
45651;Laerm;31365;48.858;8.530;2023-07-29T11:38:00;60.91;41.89;75.52;;
45651;Laerm;31365;48.858;8.530;2023-07-29T11:40:29;61.05;39.34;72.56;;
45651;Laerm;31365;48.858;8.530;2023-07-29T11:45:26;61.09;42.35;75.19;;
45651;Laerm;31365;48.858;8.530;2023-07-29T11:48:12;60.55;40.53;74.69;;
45651;Laerm;31365;48.858;8.530;2023-07-29T11:50:42;60.02;40.96;73.80;;
45651;Laerm;31365;48.858;8.530;2023-07-29T11:53:11;61.10;40.62;76.10;;
45651;Laerm;31365;48.858;8.530;2023-07-29T11:55:43;60.62;42.53;73.19;;
45651;Laerm;31365;48.858;8.530;2023-07-29T11:58:11;60.73;38.52;76.58;;
45651;Laerm;31365;48.858;8.530;2023-07-29T12:00:40;62.32;43.58;73.33;;
45651;Laerm;31365;48.858;8.530;2023-07-29T12:03:09;60.47;39.81;78.62;;
45651;Laerm;31365;48.858;8.530;2023-07-29T12:05:41;63.03;42.47;75.37;;
45651;Laerm;31365;48.858;8.530;2023-07-29T12:08:10;61.39;40.43;74.61;;
45651;Laerm;31365;48.858;8.530;2023-07-29T12:10:38;60.36;40.89;75.81;;
45651;Laerm;31365;48.858;8.530;2023-07-29T12:13:08;63.68;40.03;78.44;;
45651;Laerm;31365;48.858;8.530;2023-07-29T12:15:38;60.89;38.52;81.18;;
45651;Laerm;31365;48.858;8.530;2023-07-29T12:18:07;62.53;40.33;78.23;;
45651;Laerm;31365;48.858;8.530;2023-07-29T12:20:36;62.90;39.34;77.67;;
45651;Laerm;31365;48.858;8.530;2023-07-29T12:23:06;62.17;42.93;74.98;;
45651;Laerm;31365;48.858;8.530;2023-07-29T12:25:35;57.71;41.14;73.84;;
45651;Laerm;31365;48.858;8.530;2023-07-29T12:28:05;58.77;38.67;73.03;;
45651;Laerm;31365;48.858;8.530;2023-07-29T12:30:34;63.73;41.82;81.39;;
45651;Laerm;31365;48.858;8.530;2023-07-29T12:33:02;61.00;42.41;74.69;;
45651;Laerm;31365;48.858;8.530;2023-07-29T12:35:36;61.31;40.03;77.29;;
45651;Laerm;31365;48.858;8.530;2023-07-29T12:38:06;59.99;41.53;73.38;;
45651;Laerm;31365;48.858;8.530;2023-07-29T12:40:38;56.55;40.27;74.47;;
45651;Laerm;31365;48.858;8.530;2023-07-29T12:43:07;59.07;40.03;73.35;;
45651;Laerm;31365;48.858;8.530;2023-07-29T12:45:36;60.88;40.62;80.44;;
45651;Laerm;31365;48.858;8.530;2023-07-29T12:48:07;61.64;40.53;77.51;;
45651;Laerm;31365;48.858;8.530;2023-07-29T12:50:35;61.88;41.03;79.43;;
45651;Laerm;31365;48.858;8.530;2023-07-29T12:53:07;62.80;43.49;80.67;;
45651;Laerm;31365;48.858;8.530;2023-07-29T12:55:36;58.81;40.71;74.59;;
45651;Laerm;31365;48.858;8.530;2023-07-29T12:58:04;58.76;39.21;72.19;;
45651;Laerm;31365;48.858;8.530;2023-07-29T13:00:32;64.68;42.65;81.21;;
45651;Laerm;31365;48.858;8.530;2023-07-29T13:03:01;61.14;40.80;80.69;;
45651;Laerm;31365;48.858;8.530;2023-07-29T13:05:32;61.29;41.68;80.40;;
45651;Laerm;31365;48.858;8.530;2023-07-29T13:08:00;55.76;40.23;70.29;;
45651;Laerm;31365;48.858;8.530;2023-07-29T13:10:30;58.17;40.62;74.30;;
45651;Laerm;31365;48.858;8.530;2023-07-29T13:12:58;59.95;42.09;74.56;;
45651;Laerm;31365;48.858;8.530;2023-07-29T13:15:27;59.39;41.22;72.90;;
45651;Laerm;31365;48.858;8.530;2023-07-29T13:20:23;61.14;41.22;76.22;;
45651;Laerm;31365;48.858;8.530;2023-07-29T13:22:52;56.60;42.71;73.05;;
45651;Laerm;31365;48.858;8.530;2023-07-29T13:25:20;59.60;45.25;72.94;;
45651;Laerm;31365;48.858;8.530;2023-07-29T13:27:50;57.20;39.81;74.48;;
45651;Laerm;31365;48.858;8.530;2023-07-29T13:30:18;56.00;39.81;75.74;;
45651;Laerm;31365;48.858;8.530;2023-07-29T13:32:46;57.92;42.82;74.56;;
45651;Laerm;31365;48.858;8.530;2023-07-29T13:35:15;57.81;40.62;74.19;;
45651;Laerm;31365;48.858;8.530;2023-07-29T13:37:43;57.09;35.94;71.60;;
45651;Laerm;31365;48.858;8.530;2023-07-29T13:40:12;56.71;39.46;82.11;;
45651;Laerm;31365;48.858;8.530;2023-07-29T13:42:40;56.93;40.43;74.80;;
45651;Laerm;31365;48.858;8.530;2023-07-29T13:45:10;57.04;40.43;73.12;;
45651;Laerm;31365;48.858;8.530;2023-07-29T13:47:38;58.63;43.19;73.17;;
45651;Laerm;31365;48.858;8.530;2023-07-29T13:50:08;54.69;34.69;68.45;;
45651;Laerm;31365;48.858;8.530;2023-07-29T13:52:36;57.27;32.93;69.68;;
45651;Laerm;31365;48.858;8.530;2023-07-29T13:55:06;61.54;36.91;76.46;;
45651;Laerm;31365;48.858;8.530;2023-07-29T13:57:34;58.41;40.03;72.89;;
45651;Laerm;31365;48.858;8.530;2023-07-29T14:00:03;55.66;39.81;72.58;;
45651;Laerm;31365;48.858;8.530;2023-07-29T14:02:38;55.84;41.22;76.71;;
45651;Laerm;31365;48.858;8.530;2023-07-29T14:05:07;53.75;29.92;65.53;;
45651;Laerm;31365;48.858;8.530;2023-07-29T14:07:35;54.79;30.89;66.87;;
45651;Laerm;31365;48.858;8.530;2023-07-29T14:10:05;55.81;37.88;69.67;;
45651;Laerm;31365;48.858;8.530;2023-07-29T14:12:34;57.06;41.89;73.95;;
45651;Laerm;31365;48.858;8.530;2023-07-29T14:15:04;56.44;40.89;70.87;;
45651;Laerm;31365;48.858;8.530;2023-07-29T14:17:33;57.16;40.03;71.83;;